Time;durP1;ratioP1;P1;durP2;ratioP2;P2;SDS_P1;SDS_P2;PMS_P1;PMS_P2;Temp;Humidity;BMP_temperature;BMP_pressure;BME280_temperature;BME280_humidity;BME280_pressure;Samples;Min_cycle;Max_cycle;Signal;HPM_P1;HPM_P2
2022/06/02 00:01:53;;;;;;;9.30;3.15;;;;;;;;;;5091407;28;19916;-68
2022/06/02 00:04:24;;;;;;;10.05;3.65;;;;;;;;;;5091241;28;20039;-66
2022/06/02 00:07:06;;;;;;;8.50;3.50;;;;;;;;;;5091385;28;20040;-66
2022/06/02 00:09:56;;;;;;;7.93;3.35;;;;;;;;;;5091215;28;20040;-66
2022/06/02 00:12:49;;;;;;;8.20;3.78;;;;;;;;;;5092503;28;20047;-67
2022/06/02 00:15:33;;;;;;;9.68;3.70;;;;;;;;;;5093184;28;20032;-67
2022/06/02 00:18:29;;;;;;;9.90;3.70;;;;;;;;;;5093167;28;20028;-67
2022/06/02 00:21:02;;;;;;;8.75;3.40;;;;;;;;;;5092657;28;20194;-65
2022/06/02 00:23:31;;;;;;;8.32;3.42;;;;;;;;;;5092307;28;20046;-66
2022/06/02 00:26:26;;;;;;;11.60;3.88;;;;;;;;;;5092834;28;20052;-67
2022/06/02 00:29:26;;;;;;;6.13;3.45;;;;;;;;;;5092814;28;20043;-66
2022/06/02 00:32:08;;;;;;;10.80;3.72;;;;;;;;;;5092906;28;20050;-66
2022/06/02 00:34:45;;;;;;;8.93;3.80;;;;;;;;;;5093012;28;20032;-67
2022/06/02 00:37:22;;;;;;;9.00;3.67;;;;;;;;;;5092975;28;20063;-67
2022/06/02 00:39:50;;;;;;;11.32;4.00;;;;;;;;;;5092807;28;20054;-66
2022/06/02 00:42:40;;;;;;;7.78;3.67;;;;;;;;;;5089472;28;20035;-66
2022/06/02 00:45:12;;;;;;;6.25;3.13;;;;;;;;;;5091809;28;20031;-70
2022/06/02 00:48:12;;;;;;;8.35;3.17;;;;;;;;;;5092006;28;20386;-66
2022/06/02 00:50:41;;;;;;;14.20;3.70;;;;;;;;;;5068633;28;20045;-66
2022/06/02 00:53:17;;;;;;;5.90;3.85;;;;;;;;;;5071653;28;20048;-66
2022/06/02 00:59:28;;;;;;;14.65;4.15;;;;;;;;;;5071537;28;20079;-66
2022/06/02 01:01:55;;;;;;;10.20;4.47;;;;;;;;;;5071525;28;20123;-66
2022/06/02 01:04:21;;;;;;;12.20;4.50;;;;;;;;;;5071872;28;20025;-66
2022/06/02 01:07:05;;;;;;;10.82;4.13;;;;;;;;;;5071863;28;20037;-66
2022/06/02 01:09:44;;;;;;;7.40;3.85;;;;;;;;;;5073033;28;20037;-66
2022/06/02 01:12:26;;;;;;;9.48;3.72;;;;;;;;;;5072412;28;20538;-66
2022/06/02 01:14:55;;;;;;;7.70;4.07;;;;;;;;;;5072515;28;20039;-66
2022/06/02 01:17:50;;;;;;;11.10;4.38;;;;;;;;;;5075384;28;20035;-66
2022/06/02 01:20:31;;;;;;;9.48;3.90;;;;;;;;;;5074784;28;20049;-66
2022/06/02 01:23:14;;;;;;;11.13;4.15;;;;;;;;;;5074675;28;20528;-66
2022/06/02 01:26:14;;;;;;;10.30;4.00;;;;;;;;;;5074856;28;20100;-67
2022/06/02 01:28:40;;;;;;;9.82;4.30;;;;;;;;;;5095127;28;20119;-68
2022/06/02 01:31:21;;;;;;;10.02;4.40;;;;;;;;;;5094616;28;20099;-68
2022/06/02 01:34:06;;;;;;;5.88;3.97;;;;;;;;;;5094352;28;20062;-67
2022/06/02 01:36:45;;;;;;;7.32;3.78;;;;;;;;;;5094267;28;20540;-66
2022/06/02 01:39:48;;;;;;;11.05;4.40;;;;;;;;;;5094032;28;20039;-71
2022/06/02 01:42:23;;;;;;;18.20;5.10;;;;;;;;;;5093784;28;20028;-65
2022/06/02 01:44:56;;;;;;;9.32;4.10;;;;;;;;;;5094294;28;20043;-68
2022/06/02 01:47:28;;;;;;;;;;;;;;;;;;5095147;28;20024;-66
2022/06/02 01:50:22;;;;;;;11.55;4.65;;;;;;;;;;5096131;28;19942;-67
2022/06/02 01:53:03;;;;;;;10.43;4.35;;;;;;;;;;5095376;28;20043;-70
2022/06/02 01:55:58;;;;;;;10.40;3.80;;;;;;;;;;5095748;28;20054;-66
2022/06/02 01:58:53;;;;;;;8.30;3.63;;;;;;;;;;5093464;28;20040;-67
2022/06/02 02:01:37;;;;;;;7.30;3.80;;;;;;;;;;5094606;28;20115;-66
2022/06/02 02:04:41;;;;;;;10.50;3.80;;;;;;;;;;5094467;28;20059;-66
2022/06/02 02:07:22;;;;;;;9.27;3.40;;;;;;;;;;5094484;28;20035;-66
2022/06/02 02:09:56;;;;;;;9.60;4.00;;;;;;;;;;5094487;28;20513;-66
2022/06/02 02:12:39;;;;;;;9.32;3.65;;;;;;;;;;5094676;28;20115;-66
2022/06/02 02:15:26;;;;;;;5.72;3.42;;;;;;;;;;5094549;28;20098;-66
2022/06/02 02:18:20;;;;;;;9.88;3.70;;;;;;;;;;5094530;28;20546;-65
2022/06/02 02:21:09;;;;;;;8.52;3.88;;;;;;;;;;5094020;28;20078;-66
2022/06/02 02:24:03;;;;;;;10.02;3.90;;;;;;;;;;5094330;28;20040;-66
2022/06/02 02:26:36;;;;;;;12.50;4.10;;;;;;;;;;5093683;28;20531;-66
2022/06/02 02:29:25;;;;;;;;;;;;;;;;;;5094580;28;20039;-65
2022/06/02 02:32:41;;;;;;;10.77;3.92;;;;;;;;;;5088285;28;20441;-65
2022/06/02 02:35:38;;;;;;;11.27;3.50;;;;;;;;;;5076183;28;20129;-67
2022/06/02 02:38:08;;;;;;;5.70;3.22;;;;;;;;;;5093878;28;20028;-66
2022/06/02 02:40:44;;;;;;;7.60;3.38;;;;;;;;;;5094084;28;20085;-67
2022/06/02 02:43:24;;;;;;;9.82;3.80;;;;;;;;;;5093794;28;20559;-67
2022/06/02 02:46:16;;;;;;;10.90;3.70;;;;;;;;;;5093635;28;20479;-66
2022/06/02 02:48:56;;;;;;;23.63;6.03;;;;;;;;;;5093496;28;20107;-66
2022/06/02 02:51:47;;;;;;;35.92;7.80;;;;;;;;;;5093711;28;20474;-67
2022/06/02 02:54:21;;;;;;;32.30;5.88;;;;;;;;;;5093667;28;20435;-68
2022/06/02 02:56:58;;;;;;;23.23;5.43;;;;;;;;;;5093668;28;20032;-67
2022/06/02 02:59:49;;;;;;;11.13;3.92;;;;;;;;;;5093794;28;20028;-66
2022/06/02 03:02:26;;;;;;;8.30;3.25;;;;;;;;;;5095780;28;20123;-66
2022/06/02 03:05:13;;;;;;;10.90;3.80;;;;;;;;;;5093616;28;20032;-67
2022/06/02 03:07:39;;;;;;;7.03;3.55;;;;;;;;;;5073336;28;20028;-67
2022/06/02 03:10:16;;;;;;;13.18;3.97;;;;;;;;;;5072957;28;20028;-67
2022/06/02 03:13:00;;;;;;;12.98;4.30;;;;;;;;;;5072840;28;20047;-67
2022/06/02 03:15:42;;;;;;;12.98;4.07;;;;;;;;;;5081923;28;20105;-66
2022/06/02 03:18:24;;;;;;;14.60;4.88;;;;;;;;;;5092570;28;20055;-67
2022/06/02 03:21:12;;;;;;;14.63;5.15;;;;;;;;;;5092703;28;20044;-67
2022/06/02 03:24:05;;;;;;;15.30;5.10;;;;;;;;;;5092980;28;20040;-67
2022/06/02 03:26:41;;;;;;;11.90;4.32;;;;;;;;;;5075173;28;20434;-66
2022/06/02 03:29:24;;;;;;;13.18;4.30;;;;;;;;;;5072695;28;20390;-67
2022/06/02 03:32:03;;;;;;;12.52;3.83;;;;;;;;;;5072574;28;20510;-66
2022/06/02 03:35:06;;;;;;;16.17;4.10;;;;;;;;;;5072414;28;20115;-69
2022/06/02 03:37:35;;;;;;;25.25;5.38;;;;;;;;;;5085631;28;20081;-67
2022/06/02 03:40:15;;;;;;;8.68;3.60;;;;;;;;;;5091518;28;20494;-67
2022/06/02 03:43:09;;;;;;;12.90;4.47;;;;;;;;;;5092165;28;20043;-68
2022/06/02 03:45:44;;;;;;;9.25;4.20;;;;;;;;;;5092538;28;20040;-67
2022/06/02 03:48:28;;;;;;;17.80;6.63;;;;;;;;;;5092450;28;20398;-70
2022/06/02 03:51:07;;;;;;;17.55;5.22;;;;;;;;;;5092289;28;20039;-69
2022/06/02 03:53:57;;;;;;;10.25;4.78;;;;;;;;;;5091984;28;20036;-68
2022/06/02 03:56:56;;;;;;;16.17;5.85;;;;;;;;;;5090441;28;20474;-71
2022/06/02 03:59:28;;;;;;;18.70;5.18;;;;;;;;;;5072263;28;20032;-66
2022/06/02 04:02:01;;;;;;;18.00;4.32;;;;;;;;;;5072064;28;20035;-67
2022/06/02 04:04:28;;;;;;;12.50;5.10;;;;;;;;;;5072268;28;20020;-69
2022/06/02 04:07:22;;;;;;;13.32;4.25;;;;;;;;;;5071570;28;20537;-68
2022/06/02 04:10:08;;;;;;;16.55;5.40;;;;;;;;;;5071892;28;20036;-67
2022/06/02 04:15:54;;;;;;;13.43;4.10;;;;;;;;;;5061220;28;20053;-66
2022/06/02 04:18:28;;;;;;;20.65;5.35;;;;;;;;;;5071673;28;20210;-67
2022/06/02 04:21:07;;;;;;;16.67;4.88;;;;;;;;;;5071233;28;20041;-67
2022/06/02 04:23:54;;;;;;;30.83;5.78;;;;;;;;;;5071768;28;20043;-66
2022/06/02 04:26:54;;;;;;;21.67;5.55;;;;;;;;;;5071059;28;20028;-67
2022/06/02 04:29:44;;;;;;;26.30;5.80;;;;;;;;;;5071096;28;20032;-66
2022/06/02 04:32:57;;;;;;;29.70;5.30;;;;;;;;;;5071358;28;20074;-71
2022/06/02 04:35:25;;;;;;;20.53;5.23;;;;;;;;;;5027793;28;20091;-71
2022/06/02 04:38:04;;;;;;;15.45;5.13;;;;;;;;;;5011486;28;20780;-70
2022/06/02 04:40:29;;;;;;;16.70;6.22;;;;;;;;;;5055578;28;20052;-73
2022/06/02 04:43:00;;;;;;;13.93;5.53;;;;;;;;;;5070685;28;20028;-71
2022/06/02 04:45:55;;;;;;;25.38;6.50;;;;;;;;;;5089629;28;20031;-71
2022/06/02 04:48:23;;;;;;;16.02;5.10;;;;;;;;;;5069038;28;20036;-71
2022/06/02 04:51:13;;;;;;;14.43;5.13;;;;;;;;;;5072531;28;20031;-71
2022/06/02 04:54:07;;;;;;;20.88;6.03;;;;;;;;;;5076353;28;20047;-70
2022/06/02 04:56:32;;;;;;;;;;;;;;;;;;5074817;28;20044;-71
2022/06/02 04:59:19;;;;;;;20.48;6.70;;;;;;;;;;5074100;28;20389;-71
2022/06/02 05:02:06;;;;;;;17.67;6.65;;;;;;;;;;5073960;28;20029;-70
2022/06/02 05:04:53;;;;;;;19.95;6.43;;;;;;;;;;5074168;28;20032;-69
2022/06/02 05:07:25;;;;;;;21.50;5.78;;;;;;;;;;5075403;28;20139;-70
2022/06/02 05:10:03;;;;;;;11.80;5.10;;;;;;;;;;5075364;28;20032;-72
2022/06/02 05:12:47;;;;;;;12.20;4.90;;;;;;;;;;5075359;28;20040;-71
2022/06/02 05:15:31;;;;;;;18.70;5.70;;;;;;;;;;5075470;28;20028;-70
2022/06/02 05:17:57;;;;;;;18.98;5.72;;;;;;;;;;5075065;28;20036;-70
2022/06/02 05:20:51;;;;;;;14.80;4.50;;;;;;;;;;5075724;28;20127;-71
2022/06/02 05:23:22;;;;;;;14.73;4.80;;;;;;;;;;5075151;28;20121;-70
2022/06/02 05:26:01;;;;;;;19.95;5.40;;;;;;;;;;5075225;28;20119;-70
2022/06/02 05:28:54;;;;;;;11.88;4.85;;;;;;;;;;5075211;28;20032;-72
2022/06/02 05:31:28;;;;;;;14.65;5.25;;;;;;;;;;5075456;28;20151;-72
2022/06/02 05:34:02;;;;;;;15.88;4.93;;;;;;;;;;5075583;28;20029;-70
2022/06/02 05:37:04;;;;;;;8.90;4.40;;;;;;;;;;5075239;28;20036;-71
2022/06/02 05:39:46;;;;;;;18.70;5.07;;;;;;;;;;5075109;28;20123;-76
2022/06/02 05:42:35;;;;;;;12.35;5.10;;;;;;;;;;5074842;28;20080;-70
2022/06/02 05:45:26;;;;;;;16.20;5.22;;;;;;;;;;5074935;28;20040;-70
2022/06/02 05:48:31;;;;;;;16.85;4.57;;;;;;;;;;5074962;28;20024;-70
2022/06/02 05:51:08;;;;;;;11.13;4.22;;;;;;;;;;5075119;28;20032;-71
2022/06/02 05:53:53;;;;;;;14.98;4.55;;;;;;;;;;5075224;28;20040;-74
2022/06/02 05:56:26;;;;;;;11.23;4.72;;;;;;;;;;5084133;28;20055;-72
2022/06/02 05:59:19;;;;;;;11.93;4.88;;;;;;;;;;5076028;28;20028;-71
2022/06/02 06:02:06;;;;;;;13.30;4.35;;;;;;;;;;5073539;28;20029;-70
2022/06/02 06:05:00;;;;;;;12.70;4.18;;;;;;;;;;5074844;28;20120;-71
2022/06/02 06:07:35;;;;;;;12.63;4.35;;;;;;;;;;5074682;28;20379;-72
2022/06/02 06:10:29;;;;;;;10.02;4.35;;;;;;;;;;5074774;28;20111;-69
2022/06/02 06:13:16;;;;;;;8.00;3.90;;;;;;;;;;5074530;28;20094;-70
2022/06/02 06:15:48;;;;;;;11.00;4.13;;;;;;;;;;5074449;28;20071;-70
2022/06/02 06:18:38;;;;;;;12.45;3.80;;;;;;;;;;5074242;28;20036;-69
2022/06/02 06:21:19;;;;;;;12.82;4.03;;;;;;;;;;5074227;28;20133;-70
2022/06/02 06:24:03;;;;;;;8.13;3.50;;;;;;;;;;5074463;28;20036;-71
2022/06/02 06:26:41;;;;;;;9.45;3.53;;;;;;;;;;5074418;28;20052;-72
2022/06/02 06:29:43;;;;;;;12.40;3.95;;;;;;;;;;5074234;28;20048;-70
2022/06/02 06:32:18;;;;;;;12.77;3.55;;;;;;;;;;5074221;28;20036;-72
2022/06/02 06:35:07;;;;;;;12.50;3.90;;;;;;;;;;5074303;28;20037;-71
2022/06/02 06:38:09;;;;;;;11.80;3.80;;;;;;;;;;5074519;28;20063;-71
2022/06/02 06:41:10;;;;;;;10.85;3.95;;;;;;;;;;5074388;28;20143;-72
2022/06/02 06:43:42;;;;;;;14.68;4.18;;;;;;;;;;5073977;28;20082;-71
2022/06/02 06:46:13;;;;;;;10.83;3.83;;;;;;;;;;5075483;28;20074;-70
2022/06/02 06:48:58;;;;;;;7.97;3.75;;;;;;;;;;5074108;28;20032;-70
2022/06/02 06:52:07;;;;;;;11.18;4.10;;;;;;;;;;5074092;28;20028;-71
2022/06/02 06:54:52;;;;;;;8.60;3.40;;;;;;;;;;5063051;28;20056;-72
2022/06/02 06:57:23;;;;;;;12.32;4.38;;;;;;;;;;5073778;28;20593;-70
2022/06/02 07:00:22;;;;;;;18.58;4.60;;;;;;;;;;5073640;28;20044;-72
2022/06/02 07:02:51;;;;;;;10.63;4.00;;;;;;;;;;5073507;28;20476;-70
2022/06/02 07:05:20;;;;;;;9.93;3.95;;;;;;;;;;5073497;28;20032;-71
2022/06/02 07:08:11;;;;;;;11.57;3.95;;;;;;;;;;5073390;28;20039;-72
2022/06/02 07:10:55;;;;;;;19.02;3.70;;;;;;;;;;5073653;28;20044;-71
2022/06/02 07:13:28;;;;;;;12.55;3.67;;;;;;;;;;5073440;28;20050;-70
2022/06/02 07:16:01;;;;;;;17.10;3.90;;;;;;;;;;5073248;28;20043;-71
2022/06/02 07:18:37;;;;;;;13.75;3.50;;;;;;;;;;5073247;28;20041;-70
2022/06/02 07:21:34;;;;;;;14.20;4.13;;;;;;;;;;5072923;28;20044;-70
2022/06/02 07:24:35;;;;;;;7.65;3.60;;;;;;;;;;5073605;28;20113;-69
2022/06/02 07:27:22;;;;;;;13.77;3.40;;;;;;;;;;5063470;28;20055;-71
2022/06/02 07:30:07;;;;;;;10.30;3.45;;;;;;;;;;5093368;28;20039;-71
2022/06/02 07:33:10;;;;;;;11.05;3.30;;;;;;;;;;5093558;28;20463;-71
2022/06/02 07:36:08;;;;;;;7.47;3.00;;;;;;;;;;5093331;28;20068;-71
2022/06/02 07:39:03;;;;;;;17.35;6.05;;;;;;;;;;5093420;28;20034;-70
2022/06/02 07:41:43;;;;;;;9.32;3.58;;;;;;;;;;5084095;28;20664;-72
2022/06/02 07:44:30;;;;;;;7.15;3.20;;;;;;;;;;5092741;28;20056;-71
2022/06/02 07:47:27;;;;;;;7.72;3.13;;;;;;;;;;5083915;28;20029;-70
2022/06/02 07:50:15;;;;;;;6.60;2.90;;;;;;;;;;5089195;28;20111;-71
2022/06/02 07:53:10;;;;;;;7.95;3.03;;;;;;;;;;5081572;28;20410;-70
2022/06/02 07:56:05;;;;;;;8.75;3.47;;;;;;;;;;5092706;28;20113;-71
2022/06/02 07:58:53;;;;;;;10.93;3.40;;;;;;;;;;5068470;28;20375;-70
2022/06/02 08:01:19;;;;;;;5.53;3.40;;;;;;;;;;5092663;28;20039;-70
2022/06/02 08:04:18;;;;;;;8.13;3.28;;;;;;;;;;5092692;28;20028;-77
2022/06/02 08:07:24;;;;;;;6.63;2.90;;;;;;;;;;5092770;28;20115;-71
2022/06/02 08:10:18;;;;;;;15.57;3.90;;;;;;;;;;5042400;28;20131;-70
2022/06/02 08:12:59;;;;;;;7.13;3.05;;;;;;;;;;5072131;28;20032;-70
2022/06/02 08:15:40;;;;;;;9.57;3.03;;;;;;;;;;5072323;28;20042;-71
2022/06/02 08:18:15;;;;;;;4.65;3.10;;;;;;;;;;5072654;28;20368;-69
2022/06/02 08:20:56;;;;;;;6.90;3.63;;;;;;;;;;5072478;28;20043;-72
2022/06/02 08:23:25;;;;;;;8.43;3.50;;;;;;;;;;5072070;28;20078;-71
2022/06/02 08:25:56;;;;;;;7.88;3.50;;;;;;;;;;5071529;28;20024;-71
2022/06/02 08:28:52;;;;;;;8.20;3.70;;;;;;;;;;5072260;28;20020;-70
2022/06/02 08:31:44;;;;;;;5.78;3.20;;;;;;;;;;5071705;28;20028;-70
2022/06/02 08:34:35;;;;;;;13.65;3.00;;;;;;;;;;5070266;28;20147;-73
2022/06/02 08:37:10;;;;;;;6.97;3.40;;;;;;;;;;5071600;28;20039;-72
2022/06/02 08:40:07;;;;;;;8.93;3.25;;;;;;;;;;5073374;28;20415;-70
2022/06/02 08:43:19;;;;;;;5.07;3.00;;;;;;;;;;5071651;28;20037;-71
2022/06/02 08:46:09;;;;;;;6.43;3.40;;;;;;;;;;5056102;28;20059;-72
2022/06/02 08:48:56;;;;;;;9.40;3.70;;;;;;;;;;5072159;28;20040;-73
2022/06/02 08:51:25;;;;;;;7.28;3.20;;;;;;;;;;5071944;28;20414;-72
2022/06/02 08:54:12;;;;;;;10.98;3.78;;;;;;;;;;5072020;28;20025;-70
2022/06/02 08:57:06;;;;;;;8.10;3.13;;;;;;;;;;5071726;28;20029;-71
2022/06/02 08:59:38;;;;;;;6.88;3.13;;;;;;;;;;5071787;28;20067;-71
2022/06/02 09:02:35;;;;;;;10.60;3.55;;;;;;;;;;5071457;28;20071;-71
2022/06/02 09:05:12;;;;;;;8.70;3.53;;;;;;;;;;5071426;28;20039;-71
2022/06/02 09:08:12;;;;;;;9.43;3.67;;;;;;;;;;5071355;28;20029;-71
2022/06/02 09:10:56;;;;;;;9.57;3.53;;;;;;;;;;5071517;28;20407;-70
2022/06/02 09:13:53;;;;;;;8.57;3.35;;;;;;;;;;5082746;28;20086;-71
2022/06/02 09:16:50;;;;;;;7.53;3.53;;;;;;;;;;5091902;28;20035;-71
2022/06/02 09:19:48;;;;;;;11.18;4.03;;;;;;;;;;5071955;28;20364;-71
2022/06/02 09:22:30;;;;;;;7.85;3.65;;;;;;;;;;5067511;28;20044;-71
2022/06/02 09:25:28;;;;;;;11.02;3.40;;;;;;;;;;5071597;28;20041;-73
2022/06/02 09:28:24;;;;;;;6.32;3.38;;;;;;;;;;5088457;28;20046;-71
2022/06/02 09:31:12;;;;;;;7.90;3.40;;;;;;;;;;5091852;28;20036;-71
2022/06/02 09:34:14;;;;;;;5.82;3.45;;;;;;;;;;5091933;28;20036;-71
2022/06/02 09:40:40;;;;;;;6.75;3.83;;;;;;;;;;5081732;28;20086;-71
2022/06/02 09:43:30;;;;;;;7.07;3.70;;;;;;;;;;5074730;28;20066;-71
2022/06/02 09:46:27;;;;;;;8.93;3.50;;;;;;;;;;5074129;28;20118;-70
2022/06/02 09:49:14;;;;;;;8.73;3.75;;;;;;;;;;5074662;28;20074;-70
2022/06/02 09:52:19;;;;;;;5.18;3.00;;;;;;;;;;5075054;28;20055;-72
2022/06/02 09:55:22;;;;;;;5.95;3.40;;;;;;;;;;5052240;28;20041;-71
2022/06/02 09:58:19;;;;;;;7.90;3.30;;;;;;;;;;5074592;28;20060;-72
2022/06/02 10:00:53;;;;;;;7.90;3.78;;;;;;;;;;5074065;28;20032;-69
2022/06/02 10:03:38;;;;;;;8.43;3.70;;;;;;;;;;5074089;28;20056;-69
2022/06/02 10:06:16;;;;;;;7.43;3.55;;;;;;;;;;5074609;28;20060;-71
2022/06/02 10:09:01;;;;;;;6.70;3.50;;;;;;;;;;5074668;28;20103;-70
2022/06/02 10:11:51;;;;;;;7.53;3.30;;;;;;;;;;5074710;28;20360;-72
2022/06/02 10:15:03;;;;;;;6.40;3.58;;;;;;;;;;5073523;28;20370;-72
2022/06/02 10:17:52;;;;;;;5.25;3.15;;;;;;;;;;5075077;28;20071;-71
2022/06/02 10:20:43;;;;;;;12.82;4.00;;;;;;;;;;5061243;28;20043;-70
2022/06/02 10:23:34;;;;;;;11.68;4.00;;;;;;;;;;5093831;28;20036;-69
2022/06/02 10:26:13;;;;;;;9.02;3.67;;;;;;;;;;5094131;28;20078;-72
2022/06/02 10:29:10;;;;;;;11.10;3.80;;;;;;;;;;5096065;28;20024;-70
2022/06/02 10:31:51;;;;;;;11.18;3.40;;;;;;;;;;5094057;28;20040;-72
2022/06/02 10:34:49;;;;;;;7.97;3.55;;;;;;;;;;5094136;28;20032;-69
2022/06/02 10:37:43;;;;;;;13.40;4.75;;;;;;;;;;5081801;28;20044;-70
2022/06/02 10:40:18;;;;;;;9.95;3.65;;;;;;;;;;5093829;28;20024;-69
2022/06/02 10:43:28;;;;;;;10.23;3.75;;;;;;;;;;5094029;28;20046;-69
2022/06/02 10:46:28;;;;;;;5.35;3.40;;;;;;;;;;5081292;28;20052;-68
2022/06/02 10:49:12;;;;;;;8.68;3.20;;;;;;;;;;5088139;28;20064;-69
2022/06/02 10:52:05;;;;;;;5.85;3.13;;;;;;;;;;5073974;28;20029;-69
2022/06/02 10:54:59;;;;;;;4.15;2.65;;;;;;;;;;5073833;28;20115;-70
2022/06/02 10:58:02;;;;;;;5.00;3.35;;;;;;;;;;5074006;28;20036;-69
2022/06/02 11:01:09;;;;;;;7.70;2.95;;;;;;;;;;5074105;28;20052;-69
2022/06/02 11:03:50;;;;;;;11.10;3.45;;;;;;;;;;5073652;28;20513;-69
2022/06/02 11:06:59;;;;;;;6.18;3.45;;;;;;;;;;5073674;28;20483;-70
2022/06/02 11:10:06;;;;;;;4.72;2.80;;;;;;;;;;5073499;28;20032;-70
2022/06/02 11:12:32;;;;;;;5.20;2.80;;;;;;;;;;5073226;28;20041;-72
2022/06/02 11:15:36;;;;;;;7.43;3.13;;;;;;;;;;5073914;28;20031;-71
2022/06/02 11:18:39;;;;;;;7.05;3.30;;;;;;;;;;5073627;28;20143;-69
2022/06/02 11:21:24;;;;;;;;;;;;;;;;;;5073766;28;20056;-70
2022/06/02 11:24:18;;;;;;;6.13;3.20;;;;;;;;;;5073217;28;19923;-70
2022/06/02 11:27:21;;;;;;;6.75;2.92;;;;;;;;;;5083204;28;21094;-70
2022/06/02 11:30:18;;;;;;;7.32;3.25;;;;;;;;;;5072927;28;20387;-69
2022/06/02 11:33:21;;;;;;;8.77;3.33;;;;;;;;;;5073125;28;20060;-69
2022/06/02 11:36:05;;;;;;;;;;;;;;;;;;5073674;28;20124;-70
2022/06/02 11:38:53;;;;;;;5.80;3.00;;;;;;;;;;5073145;28;20003;-70
2022/06/02 11:41:36;;;;;;;7.35;2.72;;;;;;;;;;5073102;28;20040;-71
2022/06/02 11:44:02;;;;;;;7.47;3.17;;;;;;;;;;5073157;28;20485;-70
2022/06/02 11:46:53;;;;;;;8.90;3.30;;;;;;;;;;5071775;28;20107;-70
2022/06/02 11:49:37;;;;;;;5.90;2.88;;;;;;;;;;5073294;28;20028;-70
2022/06/02 11:52:30;;;;;;;8.40;3.35;;;;;;;;;;5072665;28;20490;-71
2022/06/02 11:55:21;;;;;;;7.65;3.22;;;;;;;;;;5072743;28;20032;-74
2022/06/02 11:58:31;;;;;;;7.60;3.25;;;;;;;;;;5072731;28;20107;-72
2022/06/02 12:01:24;;;;;;;4.95;3.25;;;;;;;;;;5069100;28;20044;-73
2022/06/02 12:04:03;;;;;;;;;;;;;;;;;;5073217;28;20502;-72
2022/06/02 12:07:06;;;;;;;6.60;3.28;;;;;;;;;;5072217;28;20023;-71
2022/06/02 12:10:02;;;;;;;6.50;3.63;;;;;;;;;;5072875;28;20475;-72
2022/06/02 12:12:47;;;;;;;7.78;3.50;;;;;;;;;;5072957;28;20467;-71
2022/06/02 12:15:34;;;;;;;6.07;3.13;;;;;;;;;;5073595;28;20029;-70
2022/06/02 12:18:22;;;;;;;7.60;3.30;;;;;;;;;;5073099;28;20029;-71
2022/06/02 12:21:10;;;;;;;7.45;3.03;;;;;;;;;;5072624;28;20117;-68
2022/06/02 12:23:54;;;;;;;4.65;2.83;;;;;;;;;;5082805;28;20047;-68
2022/06/02 12:26:33;;;;;;;5.45;3.17;;;;;;;;;;5092839;28;20036;-71
2022/06/02 12:29:09;;;;;;;8.07;3.20;;;;;;;;;;5092900;28;20036;-70
2022/06/02 12:31:46;;;;;;;8.85;3.50;;;;;;;;;;5094329;28;20073;-71
2022/06/02 12:34:44;;;;;;;7.22;3.10;;;;;;;;;;5108493;28;20543;-70
2022/06/02 12:37:27;;;;;;;5.82;2.70;;;;;;;;;;5093862;28;20028;-69
2022/06/02 12:40:23;;;;;;;5.80;3.38;;;;;;;;;;5086905;28;20146;-67
2022/06/02 12:43:08;;;;;;;5.38;2.80;;;;;;;;;;5083129;28;20514;-68
2022/06/02 12:45:45;;;;;;;4.20;2.65;;;;;;;;;;5078396;28;20032;-69
2022/06/02 12:48:38;;;;;;;5.78;2.95;;;;;;;;;;5110070;28;20035;-68
2022/06/02 12:51:25;;;;;;;6.38;2.90;;;;;;;;;;5112653;28;20043;-69
2022/06/02 12:54:28;;;;;;;7.88;2.70;;;;;;;;;;5112460;28;20377;-69
2022/06/02 12:57:13;;;;;;;5.53;3.08;;;;;;;;;;5101834;28;20049;-71
2022/06/02 13:00:13;;;;;;;9.48;3.33;;;;;;;;;;5075570;28;20041;-70
2022/06/02 13:03:16;;;;;;;9.32;2.78;;;;;;;;;;5108396;28;20032;-70
2022/06/02 13:06:25;;;;;;;9.85;3.20;;;;;;;;;;5112199;28;20031;-73
2022/06/02 13:09:12;;;;;;;6.32;2.55;;;;;;;;;;5112387;28;20051;-71
2022/06/02 13:11:56;;;;;;;6.85;3.35;;;;;;;;;;5110111;28;20540;-70
2022/06/02 13:14:41;;;;;;;5.60;2.88;;;;;;;;;;5116131;28;20035;-73
2022/06/02 13:17:21;;;;;;;4.57;2.80;;;;;;;;;;5116181;28;20088;-69
2022/06/02 13:20:20;;;;;;;5.57;2.92;;;;;;;;;;5113809;28;20031;-68
2022/06/02 13:23:04;;;;;;;5.28;3.00;;;;;;;;;;5116613;28;20032;-71
2022/06/02 13:26:13;;;;;;;10.07;3.35;;;;;;;;;;5114247;28;20386;-70
2022/06/02 13:28:58;;;;;;;6.85;2.80;;;;;;;;;;5116032;28;20374;-69
2022/06/02 13:32:01;;;;;;;6.63;2.60;;;;;;;;;;5110059;28;20033;-68
2022/06/02 13:34:33;;;;;;;4.85;2.72;;;;;;;;;;5087176;28;20156;-71
2022/06/02 13:37:25;;;;;;;8.07;3.15;;;;;;;;;;5095327;28;20029;-71
2022/06/02 13:40:23;;;;;;;8.30;2.97;;;;;;;;;;5087650;28;20088;-73
2022/06/02 13:43:07;;;;;;;3.78;2.45;;;;;;;;;;5094993;28;20032;-71
2022/06/02 13:45:58;;;;;;;6.35;3.05;;;;;;;;;;5095318;28;20090;-72
2022/06/02 13:48:49;;;;;;;4.78;2.60;;;;;;;;;;5094334;28;20494;-70
2022/06/02 13:51:23;;;;;;;5.57;2.83;;;;;;;;;;5095091;28;20028;-69
2022/06/02 14:00:42;;;;;;;8.68;2.50;;;;;;;;;;5094774;28;20036;-68
2022/06/02 14:03:45;;;;;;;11.55;2.75;;;;;;;;;;5032177;28;20044;-69
2022/06/02 14:06:11;;;;;;;;;;;;;;;;;;5033013;28;20030;-68
2022/06/02 14:08:55;;;;;;;8.20;2.75;;;;;;;;;;5083604;28;19912;-71
2022/06/02 14:11:42;;;;;;;7.07;2.53;;;;;;;;;;5092323;28;20040;-70
2022/06/02 14:14:42;;;;;;;6.63;2.65;;;;;;;;;;5094479;28;20046;-71
2022/06/02 14:17:20;;;;;;;6.20;2.50;;;;;;;;;;5093855;28;20032;-70
2022/06/02 14:20:00;;;;;;;10.20;2.67;;;;;;;;;;5094454;28;20389;-70
2022/06/02 14:22:41;;;;;;;6.22;2.33;;;;;;;;;;5092697;28;20138;-70
2022/06/02 14:25:27;;;;;;;5.05;2.53;;;;;;;;;;5092707;28;20028;-70
2022/06/02 14:28:06;;;;;;;5.43;2.40;;;;;;;;;;5093866;28;20024;-70
2022/06/02 14:30:40;;;;;;;8.77;2.60;;;;;;;;;;5094251;28;20474;-68
2022/06/02 14:33:22;;;;;;;7.43;2.40;;;;;;;;;;5087072;28;20100;-68
2022/06/02 14:36:03;;;;;;;4.30;2.45;;;;;;;;;;5093298;28;20032;-67
2022/06/02 14:38:47;;;;;;;6.30;2.35;;;;;;;;;;5094345;28;20470;-67
2022/06/02 14:41:28;;;;;;;5.55;2.63;;;;;;;;;;5094337;28;20111;-65
2022/06/02 14:44:04;;;;;;;4.78;2.30;;;;;;;;;;5093916;28;20035;-67
2022/06/02 14:46:32;;;;;;;3.95;2.30;;;;;;;;;;5086265;28;20044;-68
2022/06/02 14:49:18;;;;;;;4.75;2.30;;;;;;;;;;5072310;28;20025;-67
2022/06/02 14:52:11;;;;;;;6.32;2.45;;;;;;;;;;5075431;28;20509;-67
2022/06/02 14:54:44;;;;;;;7.65;2.75;;;;;;;;;;5082967;28;20037;-68
2022/06/02 14:57:10;;;;;;;;;;;;;;;;;;5074501;28;20071;-67
2022/06/02 14:59:54;;;;;;;8.10;2.33;;;;;;;;;;5074021;28;19913;-69
2022/06/02 15:02:38;;;;;;;7.25;2.30;;;;;;;;;;5073845;28;20033;-67
2022/06/02 15:05:23;;;;;;;6.22;2.53;;;;;;;;;;5074074;28;20021;-67
2022/06/02 15:07:54;;;;;;;8.32;2.80;;;;;;;;;;5093019;28;20028;-67
2022/06/02 15:10:50;;;;;;;8.02;2.33;;;;;;;;;;5092964;28;20032;-68
2022/06/02 15:13:59;;;;;;;8.00;2.20;;;;;;;;;;5092486;28;20423;-68
2022/06/02 15:16:30;;;;;;;7.05;2.33;;;;;;;;;;5092844;28;20040;-67
2022/06/02 15:19:13;;;;;;;10.00;2.92;;;;;;;;;;5092908;28;20463;-67
2022/06/02 15:21:41;;;;;;;6.32;2.10;;;;;;;;;;5092474;28;20497;-69
2022/06/02 15:24:35;;;;;;;10.20;2.33;;;;;;;;;;5092569;28;20040;-68
2022/06/02 15:27:29;;;;;;;8.20;2.40;;;;;;;;;;5090309;28;20024;-68
2022/06/02 15:30:21;;;;;;;6.82;2.50;;;;;;;;;;5072252;28;20036;-67
2022/06/02 15:33:16;;;;;;;7.45;2.90;;;;;;;;;;5069947;28;20380;-67
2022/06/02 15:36:09;;;;;;;6.15;2.63;;;;;;;;;;5079264;28;20044;-65
2022/06/02 15:39:05;;;;;;;6.80;2.53;;;;;;;;;;5092086;28;20486;-69
2022/06/02 15:41:42;;;;;;;9.15;2.97;;;;;;;;;;5090680;28;20044;-68
2022/06/02 15:44:29;;;;;;;8.23;2.65;;;;;;;;;;5092363;28;20047;-67
2022/06/02 15:47:16;;;;;;;6.57;2.67;;;;;;;;;;5091482;28;20489;-66
2022/06/02 15:49:55;;;;;;;4.20;2.88;;;;;;;;;;5091230;28;20032;-68
2022/06/02 15:52:52;;;;;;;6.45;2.67;;;;;;;;;;5091233;28;20039;-68
2022/06/02 15:55:36;;;;;;;10.93;2.83;;;;;;;;;;5091424;28;20028;-71
2022/06/02 15:58:14;;;;;;;6.68;3.13;;;;;;;;;;5091357;28;20024;-70
2022/06/02 16:01:07;;;;;;;8.63;3.17;;;;;;;;;;5093107;28;20032;-68
2022/06/02 16:03:52;;;;;;;;;;;;;;;;;;5093354;28;20036;-72
2022/06/02 16:06:56;;;;;;;6.45;2.88;;;;;;;;;;5092735;28;19915;-70
2022/06/02 16:13:08;;;;;;;5.32;2.63;;;;;;;;;;5070867;28;20028;-68
2022/06/02 16:16:07;;;;;;;6.18;2.72;;;;;;;;;;5070498;28;20028;-69
2022/06/02 16:19:11;;;;;;;6.80;3.13;;;;;;;;;;5070984;28;20154;-67
2022/06/02 16:22:06;;;;;;;5.78;3.22;;;;;;;;;;5047686;28;20431;-67
2022/06/02 16:24:54;;;;;;;11.63;3.05;;;;;;;;;;5048429;28;20064;-68
2022/06/02 16:27:57;;;;;;;3.90;2.63;;;;;;;;;;5067024;28;20045;-67
2022/06/02 16:30:53;;;;;;;8.95;3.22;;;;;;;;;;5071066;28;20479;-67
2022/06/02 16:33:30;;;;;;;6.43;3.00;;;;;;;;;;5071125;28;20471;-68
2022/06/02 16:36:08;;;;;;;8.77;3.28;;;;;;;;;;5071330;28;20076;-68
2022/06/02 16:38:46;;;;;;;9.02;3.10;;;;;;;;;;5070329;28;20029;-67
2022/06/02 16:41:30;;;;;;;8.75;3.40;;;;;;;;;;5070754;28;20044;-70
2022/06/02 16:44:04;;;;;;;6.95;3.03;;;;;;;;;;5070404;28;20032;-68
2022/06/02 16:46:31;;;;;;;6.55;3.20;;;;;;;;;;5070544;28;20033;-67
2022/06/02 16:49:16;;;;;;;5.25;3.17;;;;;;;;;;5071094;28;20524;-69
2022/06/02 16:52:05;;;;;;;7.30;3.13;;;;;;;;;;5070899;28;20037;-69
2022/06/02 16:54:41;;;;;;;5.78;3.20;;;;;;;;;;5071498;28;20439;-68